sensor_id;sensor_type;location;lat;lon;timestamp;P1;durP1;ratioP1;P2;durP2;ratioP2
39362;SDS011;25088;43.238;23.110;2023-12-29T00:00:33;0.30;;;0.30;;
39362;SDS011;25088;43.238;23.110;2023-12-29T00:02:58;0.40;;;0.40;;
39362;SDS011;25088;43.238;23.110;2023-12-29T00:05:24;0.30;;;0.30;;
39362;SDS011;25088;43.238;23.110;2023-12-29T00:07:50;0.30;;;0.30;;
39362;SDS011;25088;43.238;23.110;2023-12-29T00:10:15;0.30;;;0.30;;
39362;SDS011;25088;43.238;23.110;2023-12-29T00:12:41;0.30;;;0.30;;
39362;SDS011;25088;43.238;23.110;2023-12-29T00:15:06;0.40;;;0.40;;
39362;SDS011;25088;43.238;23.110;2023-12-29T00:17:32;0.30;;;0.30;;
39362;SDS011;25088;43.238;23.110;2023-12-29T00:20:02;0.32;;;0.32;;
39362;SDS011;25088;43.238;23.110;2023-12-29T00:22:30;0.38;;;0.38;;
39362;SDS011;25088;43.238;23.110;2023-12-29T00:24:56;0.30;;;0.30;;
39362;SDS011;25088;43.238;23.110;2023-12-29T00:27:22;0.32;;;0.32;;
39362;SDS011;25088;43.238;23.110;2023-12-29T00:29:47;0.40;;;0.40;;
39362;SDS011;25088;43.238;23.110;2023-12-29T00:32:13;0.40;;;0.40;;
39362;SDS011;25088;43.238;23.110;2023-12-29T00:34:38;0.40;;;0.40;;
39362;SDS011;25088;43.238;23.110;2023-12-29T00:37:03;0.40;;;0.40;;
39362;SDS011;25088;43.238;23.110;2023-12-29T00:39:30;0.40;;;0.40;;
39362;SDS011;25088;43.238;23.110;2023-12-29T00:42:03;0.40;;;0.40;;
39362;SDS011;25088;43.238;23.110;2023-12-29T00:44:29;0.30;;;0.30;;
39362;SDS011;25088;43.238;23.110;2023-12-29T00:46:54;0.40;;;0.40;;
39362;SDS011;25088;43.238;23.110;2023-12-29T00:49:20;0.40;;;0.40;;
39362;SDS011;25088;43.238;23.110;2023-12-29T00:51:46;0.40;;;0.40;;
39362;SDS011;25088;43.238;23.110;2023-12-29T00:54:12;0.40;;;0.40;;
39362;SDS011;25088;43.238;23.110;2023-12-29T00:56:38;0.30;;;0.30;;
39362;SDS011;25088;43.238;23.110;2023-12-29T00:59:03;0.40;;;0.40;;
39362;SDS011;25088;43.238;23.110;2023-12-29T01:01:32;0.40;;;0.40;;
39362;SDS011;25088;43.238;23.110;2023-12-29T01:03:59;0.30;;;0.30;;
39362;SDS011;25088;43.238;23.110;2023-12-29T01:06:24;0.30;;;0.30;;
39362;SDS011;25088;43.238;23.110;2023-12-29T01:08:49;0.30;;;0.30;;
39362;SDS011;25088;43.238;23.110;2023-12-29T01:11:15;0.40;;;0.40;;
39362;SDS011;25088;43.238;23.110;2023-12-29T01:13:40;0.40;;;0.40;;
39362;SDS011;25088;43.238;23.110;2023-12-29T01:16:06;0.40;;;0.40;;
39362;SDS011;25088;43.238;23.110;2023-12-29T01:18:31;0.40;;;0.40;;
39362;SDS011;25088;43.238;23.110;2023-12-29T01:20:57;0.40;;;0.40;;
39362;SDS011;25088;43.238;23.110;2023-12-29T01:23:22;0.40;;;0.40;;
39362;SDS011;25088;43.238;23.110;2023-12-29T01:25:48;0.40;;;0.40;;
39362;SDS011;25088;43.238;23.110;2023-12-29T01:28:13;0.40;;;0.40;;
39362;SDS011;25088;43.238;23.110;2023-12-29T01:30:39;0.40;;;0.40;;
39362;SDS011;25088;43.238;23.110;2023-12-29T01:33:04;0.40;;;0.40;;
39362;SDS011;25088;43.238;23.110;2023-12-29T01:35:30;0.40;;;0.40;;
39362;SDS011;25088;43.238;23.110;2023-12-29T01:37:55;0.40;;;0.40;;
39362;SDS011;25088;43.238;23.110;2023-12-29T01:40:22;0.40;;;0.40;;
39362;SDS011;25088;43.238;23.110;2023-12-29T01:42:47;0.40;;;0.40;;
39362;SDS011;25088;43.238;23.110;2023-12-29T01:45:23;0.40;;;0.40;;
39362;SDS011;25088;43.238;23.110;2023-12-29T01:47:51;0.40;;;0.40;;
39362;SDS011;25088;43.238;23.110;2023-12-29T01:50:17;0.40;;;0.40;;
39362;SDS011;25088;43.238;23.110;2023-12-29T01:52:45;0.40;;;0.40;;
39362;SDS011;25088;43.238;23.110;2023-12-29T01:55:14;0.40;;;0.40;;
39362;SDS011;25088;43.238;23.110;2023-12-29T01:57:43;0.40;;;0.40;;
39362;SDS011;25088;43.238;23.110;2023-12-29T02:00:10;0.40;;;0.40;;
39362;SDS011;25088;43.238;23.110;2023-12-29T02:02:36;0.40;;;0.40;;
39362;SDS011;25088;43.238;23.110;2023-12-29T02:05:02;0.40;;;0.40;;
39362;SDS011;25088;43.238;23.110;2023-12-29T02:07:28;0.50;;;0.50;;
39362;SDS011;25088;43.238;23.110;2023-12-29T02:09:56;0.40;;;0.40;;
39362;SDS011;25088;43.238;23.110;2023-12-29T02:12:23;0.40;;;0.40;;
39362;SDS011;25088;43.238;23.110;2023-12-29T02:14:48;0.40;;;0.40;;
39362;SDS011;25088;43.238;23.110;2023-12-29T02:19:48;0.40;;;0.40;;
39362;SDS011;25088;43.238;23.110;2023-12-29T02:22:15;0.40;;;0.40;;
39362;SDS011;25088;43.238;23.110;2023-12-29T02:24:49;0.30;;;0.30;;
39362;SDS011;25088;43.238;23.110;2023-12-29T02:29:42;0.30;;;0.30;;
39362;SDS011;25088;43.238;23.110;2023-12-29T02:32:18;0.30;;;0.30;;
39362;SDS011;25088;43.238;23.110;2023-12-29T02:34:47;0.30;;;0.30;;
39362;SDS011;25088;43.238;23.110;2023-12-29T02:37:14;0.30;;;0.30;;
39362;SDS011;25088;43.238;23.110;2023-12-29T02:39:41;0.40;;;0.40;;
39362;SDS011;25088;43.238;23.110;2023-12-29T02:42:06;0.40;;;0.40;;
39362;SDS011;25088;43.238;23.110;2023-12-29T02:44:32;0.40;;;0.40;;
39362;SDS011;25088;43.238;23.110;2023-12-29T02:46:57;0.30;;;0.30;;
39362;SDS011;25088;43.238;23.110;2023-12-29T02:49:24;0.30;;;0.30;;
39362;SDS011;25088;43.238;23.110;2023-12-29T02:51:51;0.40;;;0.40;;
39362;SDS011;25088;43.238;23.110;2023-12-29T02:54:16;0.30;;;0.30;;
39362;SDS011;25088;43.238;23.110;2023-12-29T02:56:42;0.40;;;0.40;;
39362;SDS011;25088;43.238;23.110;2023-12-29T02:59:07;0.40;;;0.40;;
39362;SDS011;25088;43.238;23.110;2023-12-29T03:01:33;0.40;;;0.40;;
39362;SDS011;25088;43.238;23.110;2023-12-29T03:04:00;0.40;;;0.40;;
39362;SDS011;25088;43.238;23.110;2023-12-29T03:06:26;0.40;;;0.40;;
39362;SDS011;25088;43.238;23.110;2023-12-29T03:08:51;0.40;;;0.40;;
39362;SDS011;25088;43.238;23.110;2023-12-29T03:11:17;0.40;;;0.40;;
39362;SDS011;25088;43.238;23.110;2023-12-29T03:13:43;0.40;;;0.40;;
39362;SDS011;25088;43.238;23.110;2023-12-29T03:16:09;0.40;;;0.40;;
39362;SDS011;25088;43.238;23.110;2023-12-29T03:18:34;0.40;;;0.40;;
39362;SDS011;25088;43.238;23.110;2023-12-29T03:21:03;0.40;;;0.40;;
39362;SDS011;25088;43.238;23.110;2023-12-29T03:23:29;0.40;;;0.40;;
39362;SDS011;25088;43.238;23.110;2023-12-29T03:25:55;0.30;;;0.30;;
39362;SDS011;25088;43.238;23.110;2023-12-29T03:28:20;0.40;;;0.40;;
39362;SDS011;25088;43.238;23.110;2023-12-29T03:30:46;0.30;;;0.30;;
39362;SDS011;25088;43.238;23.110;2023-12-29T03:33:11;0.40;;;0.40;;
39362;SDS011;25088;43.238;23.110;2023-12-29T03:35:36;0.30;;;0.30;;
39362;SDS011;25088;43.238;23.110;2023-12-29T03:38:02;0.38;;;0.38;;
39362;SDS011;25088;43.238;23.110;2023-12-29T03:40:27;0.40;;;0.40;;
39362;SDS011;25088;43.238;23.110;2023-12-29T03:42:53;0.30;;;0.30;;
39362;SDS011;25088;43.238;23.110;2023-12-29T03:45:18;0.30;;;0.30;;
39362;SDS011;25088;43.238;23.110;2023-12-29T03:47:44;0.30;;;0.30;;
39362;SDS011;25088;43.238;23.110;2023-12-29T03:50:09;0.30;;;0.30;;
39362;SDS011;25088;43.238;23.110;2023-12-29T03:52:35;0.30;;;0.30;;
39362;SDS011;25088;43.238;23.110;2023-12-29T03:55:00;0.30;;;0.30;;
39362;SDS011;25088;43.238;23.110;2023-12-29T03:57:25;0.30;;;0.30;;
39362;SDS011;25088;43.238;23.110;2023-12-29T03:59:51;0.30;;;0.30;;
39362;SDS011;25088;43.238;23.110;2023-12-29T04:02:16;0.40;;;0.40;;
39362;SDS011;25088;43.238;23.110;2023-12-29T04:04:42;0.30;;;0.30;;
39362;SDS011;25088;43.238;23.110;2023-12-29T04:07:08;0.30;;;0.30;;
39362;SDS011;25088;43.238;23.110;2023-12-29T04:09:33;0.30;;;0.30;;
39362;SDS011;25088;43.238;23.110;2023-12-29T04:11:59;0.40;;;0.40;;
39362;SDS011;25088;43.238;23.110;2023-12-29T04:14:24;0.40;;;0.40;;
39362;SDS011;25088;43.238;23.110;2023-12-29T04:16:50;0.30;;;0.30;;
39362;SDS011;25088;43.238;23.110;2023-12-29T04:19:15;0.30;;;0.30;;
39362;SDS011;25088;43.238;23.110;2023-12-29T04:21:40;0.30;;;0.30;;
39362;SDS011;25088;43.238;23.110;2023-12-29T04:24:06;0.30;;;0.30;;
39362;SDS011;25088;43.238;23.110;2023-12-29T04:26:35;0.30;;;0.30;;
39362;SDS011;25088;43.238;23.110;2023-12-29T04:29:02;0.30;;;0.30;;
39362;SDS011;25088;43.238;23.110;2023-12-29T04:31:27;0.30;;;0.30;;
39362;SDS011;25088;43.238;23.110;2023-12-29T04:33:53;0.30;;;0.30;;
39362;SDS011;25088;43.238;23.110;2023-12-29T04:36:18;0.30;;;0.30;;
39362;SDS011;25088;43.238;23.110;2023-12-29T04:38:43;0.30;;;0.30;;
39362;SDS011;25088;43.238;23.110;2023-12-29T04:41:11;0.30;;;0.30;;
39362;SDS011;25088;43.238;23.110;2023-12-29T04:43:37;0.30;;;0.30;;
39362;SDS011;25088;43.238;23.110;2023-12-29T04:46:02;0.30;;;0.30;;
39362;SDS011;25088;43.238;23.110;2023-12-29T04:48:28;0.30;;;0.30;;
39362;SDS011;25088;43.238;23.110;2023-12-29T04:50:53;0.30;;;0.30;;
39362;SDS011;25088;43.238;23.110;2023-12-29T04:53:19;0.30;;;0.30;;
39362;SDS011;25088;43.238;23.110;2023-12-29T04:55:44;0.30;;;0.30;;
39362;SDS011;25088;43.238;23.110;2023-12-29T04:58:10;0.30;;;0.30;;
39362;SDS011;25088;43.238;23.110;2023-12-29T05:00:35;0.30;;;0.30;;
39362;SDS011;25088;43.238;23.110;2023-12-29T05:03:01;0.30;;;0.30;;
39362;SDS011;25088;43.238;23.110;2023-12-29T05:05:26;0.30;;;0.30;;
39362;SDS011;25088;43.238;23.110;2023-12-29T05:07:51;0.30;;;0.30;;
39362;SDS011;25088;43.238;23.110;2023-12-29T05:10:17;0.30;;;0.30;;
39362;SDS011;25088;43.238;23.110;2023-12-29T05:12:42;0.30;;;0.30;;
39362;SDS011;25088;43.238;23.110;2023-12-29T05:15:08;0.30;;;0.30;;
39362;SDS011;25088;43.238;23.110;2023-12-29T05:17:33;0.30;;;0.30;;
39362;SDS011;25088;43.238;23.110;2023-12-29T05:19:59;0.40;;;0.40;;
39362;SDS011;25088;43.238;23.110;2023-12-29T05:22:24;0.35;;;0.35;;
39362;SDS011;25088;43.238;23.110;2023-12-29T05:24:50;0.40;;;0.40;;
39362;SDS011;25088;43.238;23.110;2023-12-29T05:27:15;0.40;;;0.40;;
39362;SDS011;25088;43.238;23.110;2023-12-29T05:29:41;0.40;;;0.40;;
39362;SDS011;25088;43.238;23.110;2023-12-29T05:32:07;0.40;;;0.40;;
39362;SDS011;25088;43.238;23.110;2023-12-29T05:34:33;0.40;;;0.40;;
39362;SDS011;25088;43.238;23.110;2023-12-29T05:36:59;0.40;;;0.40;;
39362;SDS011;25088;43.238;23.110;2023-12-29T05:39:24;0.30;;;0.30;;
39362;SDS011;25088;43.238;23.110;2023-12-29T05:41:50;0.30;;;0.30;;
39362;SDS011;25088;43.238;23.110;2023-12-29T05:44:15;0.40;;;0.40;;
39362;SDS011;25088;43.238;23.110;2023-12-29T05:46:41;0.30;;;0.30;;
39362;SDS011;25088;43.238;23.110;2023-12-29T05:49:06;0.30;;;0.30;;
39362;SDS011;25088;43.238;23.110;2023-12-29T05:51:31;0.30;;;0.30;;
39362;SDS011;25088;43.238;23.110;2023-12-29T05:53:57;0.40;;;0.40;;
39362;SDS011;25088;43.238;23.110;2023-12-29T05:56:22;0.30;;;0.30;;
39362;SDS011;25088;43.238;23.110;2023-12-29T05:58:48;0.30;;;0.30;;
39362;SDS011;25088;43.238;23.110;2023-12-29T06:01:13;0.30;;;0.30;;
39362;SDS011;25088;43.238;23.110;2023-12-29T06:03:39;0.30;;;0.30;;
39362;SDS011;25088;43.238;23.110;2023-12-29T06:06:04;0.40;;;0.40;;
39362;SDS011;25088;43.238;23.110;2023-12-29T06:08:30;0.40;;;0.40;;
39362;SDS011;25088;43.238;23.110;2023-12-29T06:10:55;0.30;;;0.30;;
39362;SDS011;25088;43.238;23.110;2023-12-29T06:13:21;0.40;;;0.40;;
39362;SDS011;25088;43.238;23.110;2023-12-29T06:15:47;0.30;;;0.30;;
39362;SDS011;25088;43.238;23.110;2023-12-29T06:18:12;0.30;;;0.30;;
39362;SDS011;25088;43.238;23.110;2023-12-29T06:20:38;0.40;;;0.40;;
39362;SDS011;25088;43.238;23.110;2023-12-29T06:23:04;0.38;;;0.38;;
39362;SDS011;25088;43.238;23.110;2023-12-29T06:25:29;0.40;;;0.40;;
39362;SDS011;25088;43.238;23.110;2023-12-29T06:27:55;0.40;;;0.40;;
39362;SDS011;25088;43.238;23.110;2023-12-29T06:30:20;0.40;;;0.40;;
39362;SDS011;25088;43.238;23.110;2023-12-29T06:32:46;0.32;;;0.32;;
39362;SDS011;25088;43.238;23.110;2023-12-29T06:35:11;0.40;;;0.40;;
39362;SDS011;25088;43.238;23.110;2023-12-29T06:37:40;0.30;;;0.30;;
39362;SDS011;25088;43.238;23.110;2023-12-29T06:40:06;0.35;;;0.35;;
39362;SDS011;25088;43.238;23.110;2023-12-29T06:42:32;0.30;;;0.30;;
39362;SDS011;25088;43.238;23.110;2023-12-29T06:44:57;0.40;;;0.40;;
39362;SDS011;25088;43.238;23.110;2023-12-29T06:47:23;0.30;;;0.30;;
39362;SDS011;25088;43.238;23.110;2023-12-29T06:49:49;0.30;;;0.30;;
39362;SDS011;25088;43.238;23.110;2023-12-29T06:52:15;0.30;;;0.30;;
39362;SDS011;25088;43.238;23.110;2023-12-29T06:54:41;0.30;;;0.30;;
39362;SDS011;25088;43.238;23.110;2023-12-29T06:57:07;0.20;;;0.20;;
39362;SDS011;25088;43.238;23.110;2023-12-29T06:59:32;0.20;;;0.20;;
39362;SDS011;25088;43.238;23.110;2023-12-29T07:01:58;0.20;;;0.20;;
39362;SDS011;25088;43.238;23.110;2023-12-29T07:04:23;0.20;;;0.20;;
39362;SDS011;25088;43.238;23.110;2023-12-29T07:06:49;0.20;;;0.20;;
39362;SDS011;25088;43.238;23.110;2023-12-29T07:09:14;0.20;;;0.20;;
39362;SDS011;25088;43.238;23.110;2023-12-29T07:11:40;0.20;;;0.20;;
39362;SDS011;25088;43.238;23.110;2023-12-29T07:14:05;0.20;;;0.20;;
39362;SDS011;25088;43.238;23.110;2023-12-29T07:16:31;0.20;;;0.20;;
39362;SDS011;25088;43.238;23.110;2023-12-29T07:18:56;0.20;;;0.20;;
39362;SDS011;25088;43.238;23.110;2023-12-29T07:21:22;0.20;;;0.20;;
39362;SDS011;25088;43.238;23.110;2023-12-29T07:23:47;0.20;;;0.20;;
39362;SDS011;25088;43.238;23.110;2023-12-29T07:26:13;0.10;;;0.10;;
39362;SDS011;25088;43.238;23.110;2023-12-29T07:28:38;0.10;;;0.10;;
39362;SDS011;25088;43.238;23.110;2023-12-29T07:31:04;0.10;;;0.10;;
39362;SDS011;25088;43.238;23.110;2023-12-29T07:33:30;0.10;;;0.10;;
39362;SDS011;25088;43.238;23.110;2023-12-29T07:35:56;0.10;;;0.10;;
39362;SDS011;25088;43.238;23.110;2023-12-29T07:38:21;0.10;;;0.10;;
39362;SDS011;25088;43.238;23.110;2023-12-29T07:40:47;0.10;;;0.10;;
39362;SDS011;25088;43.238;23.110;2023-12-29T07:43:15;0.10;;;0.10;;
39362;SDS011;25088;43.238;23.110;2023-12-29T07:45:40;0.10;;;0.10;;
39362;SDS011;25088;43.238;23.110;2023-12-29T07:48:08;0.10;;;0.10;;
39362;SDS011;25088;43.238;23.110;2023-12-29T07:50:34;0.10;;;0.10;;
39362;SDS011;25088;43.238;23.110;2023-12-29T07:52:59;0.10;;;0.10;;
39362;SDS011;25088;43.238;23.110;2023-12-29T07:55:28;0.10;;;0.10;;
39362;SDS011;25088;43.238;23.110;2023-12-29T07:57:56;0.10;;;0.10;;
39362;SDS011;25088;43.238;23.110;2023-12-29T08:00:21;0.10;;;0.10;;
39362;SDS011;25088;43.238;23.110;2023-12-29T08:02:48;0.10;;;0.10;;
39362;SDS011;25088;43.238;23.110;2023-12-29T08:05:14;0.10;;;0.10;;
39362;SDS011;25088;43.238;23.110;2023-12-29T08:07:40;0.10;;;0.10;;
39362;SDS011;25088;43.238;23.110;2023-12-29T08:10:06;0.10;;;0.10;;
39362;SDS011;25088;43.238;23.110;2023-12-29T08:12:32;0.10;;;0.10;;
39362;SDS011;25088;43.238;23.110;2023-12-29T08:14:59;0.10;;;0.10;;
39362;SDS011;25088;43.238;23.110;2023-12-29T08:17:25;0.10;;;0.10;;
39362;SDS011;25088;43.238;23.110;2023-12-29T08:19:51;0.10;;;0.10;;
39362;SDS011;25088;43.238;23.110;2023-12-29T08:22:16;0.10;;;0.10;;
39362;SDS011;25088;43.238;23.110;2023-12-29T08:24:42;0.00;;;0.00;;
39362;SDS011;25088;43.238;23.110;2023-12-29T08:27:11;0.00;;;0.00;;
39362;SDS011;25088;43.238;23.110;2023-12-29T08:29:37;0.00;;;0.00;;
39362;SDS011;25088;43.238;23.110;2023-12-29T08:32:03;0.10;;;0.10;;
39362;SDS011;25088;43.238;23.110;2023-12-29T08:34:28;0.10;;;0.10;;
39362;SDS011;25088;43.238;23.110;2023-12-29T08:36:54;0.00;;;0.00;;
39362;SDS011;25088;43.238;23.110;2023-12-29T08:39:21;0.00;;;0.00;;
39362;SDS011;25088;43.238;23.110;2023-12-29T08:41:46;0.00;;;0.00;;
39362;SDS011;25088;43.238;23.110;2023-12-29T08:44:12;0.00;;;0.00;;
39362;SDS011;25088;43.238;23.110;2023-12-29T08:46:37;0.00;;;0.00;;
39362;SDS011;25088;43.238;23.110;2023-12-29T08:49:03;0.00;;;0.00;;
39362;SDS011;25088;43.238;23.110;2023-12-29T08:51:28;0.00;;;0.00;;
39362;SDS011;25088;43.238;23.110;2023-12-29T08:53:54;0.00;;;0.00;;
39362;SDS011;25088;43.238;23.110;2023-12-29T08:56:20;0.00;;;0.00;;
39362;SDS011;25088;43.238;23.110;2023-12-29T08:58:45;0.00;;;0.00;;
39362;SDS011;25088;43.238;23.110;2023-12-29T09:01:11;0.00;;;0.00;;
39362;SDS011;25088;43.238;23.110;2023-12-29T09:03:37;0.00;;;0.00;;
39362;SDS011;25088;43.238;23.110;2023-12-29T09:06:03;0.00;;;0.00;;
39362;SDS011;25088;43.238;23.110;2023-12-29T09:08:29;0.00;;;0.00;;
39362;SDS011;25088;43.238;23.110;2023-12-29T09:10:55;0.00;;;0.00;;
39362;SDS011;25088;43.238;23.110;2023-12-29T09:13:21;0.00;;;0.00;;
39362;SDS011;25088;43.238;23.110;2023-12-29T09:15:50;0.00;;;0.00;;
39362;SDS011;25088;43.238;23.110;2023-12-29T09:18:15;0.00;;;0.00;;
39362;SDS011;25088;43.238;23.110;2023-12-29T09:20:41;0.00;;;0.00;;
39362;SDS011;25088;43.238;23.110;2023-12-29T09:23:06;0.00;;;0.00;;
39362;SDS011;25088;43.238;23.110;2023-12-29T09:25:32;0.00;;;0.00;;
39362;SDS011;25088;43.238;23.110;2023-12-29T09:27:57;0.00;;;0.00;;
39362;SDS011;25088;43.238;23.110;2023-12-29T09:30:22;0.00;;;0.00;;
39362;SDS011;25088;43.238;23.110;2023-12-29T09:32:48;0.00;;;0.00;;
39362;SDS011;25088;43.238;23.110;2023-12-29T09:35:14;0.00;;;0.00;;
39362;SDS011;25088;43.238;23.110;2023-12-29T09:37:39;0.00;;;0.00;;
39362;SDS011;25088;43.238;23.110;2023-12-29T09:40:05;0.00;;;0.00;;
39362;SDS011;25088;43.238;23.110;2023-12-29T09:42:31;0.00;;;0.00;;
39362;SDS011;25088;43.238;23.110;2023-12-29T09:44:57;0.00;;;0.00;;
39362;SDS011;25088;43.238;23.110;2023-12-29T09:47:27;0.00;;;0.00;;
39362;SDS011;25088;43.238;23.110;2023-12-29T09:49:55;0.00;;;0.00;;
39362;SDS011;25088;43.238;23.110;2023-12-29T09:52:20;0.00;;;0.00;;
39362;SDS011;25088;43.238;23.110;2023-12-29T09:54:48;0.00;;;0.00;;
39362;SDS011;25088;43.238;23.110;2023-12-29T09:57:16;0.00;;;0.00;;
39362;SDS011;25088;43.238;23.110;2023-12-29T09:59:43;0.00;;;0.00;;
39362;SDS011;25088;43.238;23.110;2023-12-29T10:02:15;0.00;;;0.00;;
39362;SDS011;25088;43.238;23.110;2023-12-29T10:04:43;0.00;;;0.00;;
39362;SDS011;25088;43.238;23.110;2023-12-29T10:07:10;0.00;;;0.00;;
39362;SDS011;25088;43.238;23.110;2023-12-29T10:09:40;0.00;;;0.00;;
39362;SDS011;25088;43.238;23.110;2023-12-29T10:12:08;0.00;;;0.00;;
39362;SDS011;25088;43.238;23.110;2023-12-29T10:17:47;0.00;;;0.00;;
39362;SDS011;25088;43.238;23.110;2023-12-29T10:25:48;0.00;;;0.00;;
39362;SDS011;25088;43.238;23.110;2023-12-29T10:28:14;0.00;;;0.00;;
39362;SDS011;25088;43.238;23.110;2023-12-29T10:30:43;0.00;;;0.00;;
39362;SDS011;25088;43.238;23.110;2023-12-29T10:33:08;0.00;;;0.00;;
39362;SDS011;25088;43.238;23.110;2023-12-29T10:35:35;0.00;;;0.00;;
39362;SDS011;25088;43.238;23.110;2023-12-29T10:38:08;0.00;;;0.00;;
39362;SDS011;25088;43.238;23.110;2023-12-29T10:40:35;0.00;;;0.00;;
39362;SDS011;25088;43.238;23.110;2023-12-29T10:43:01;0.00;;;0.00;;
39362;SDS011;25088;43.238;23.110;2023-12-29T10:45:31;0.00;;;0.00;;
39362;SDS011;25088;43.238;23.110;2023-12-29T10:47:58;0.00;;;0.00;;
39362;SDS011;25088;43.238;23.110;2023-12-29T10:50:25;0.00;;;0.00;;
39362;SDS011;25088;43.238;23.110;2023-12-29T10:52:52;0.00;;;0.00;;
39362;SDS011;25088;43.238;23.110;2023-12-29T10:55:35;0.00;;;0.00;;
39362;SDS011;25088;43.238;23.110;2023-12-29T10:58:01;0.00;;;0.00;;
39362;SDS011;25088;43.238;23.110;2023-12-29T11:00:29;0.00;;;0.00;;
39362;SDS011;25088;43.238;23.110;2023-12-29T11:02:55;0.00;;;0.00;;
39362;SDS011;25088;43.238;23.110;2023-12-29T11:05:24;0.00;;;0.00;;
39362;SDS011;25088;43.238;23.110;2023-12-29T11:07:50;0.00;;;0.00;;
39362;SDS011;25088;43.238;23.110;2023-12-29T11:10:19;0.00;;;0.00;;
39362;SDS011;25088;43.238;23.110;2023-12-29T11:12:45;0.00;;;0.00;;
39362;SDS011;25088;43.238;23.110;2023-12-29T11:15:13;0.00;;;0.00;;
39362;SDS011;25088;43.238;23.110;2023-12-29T11:17:39;0.00;;;0.00;;
39362;SDS011;25088;43.238;23.110;2023-12-29T11:20:14;0.00;;;0.00;;
39362;SDS011;25088;43.238;23.110;2023-12-29T11:22:45;0.00;;;0.00;;
39362;SDS011;25088;43.238;23.110;2023-12-29T11:25:11;0.00;;;0.00;;
39362;SDS011;25088;43.238;23.110;2023-12-29T11:27:37;0.00;;;0.00;;
39362;SDS011;25088;43.238;23.110;2023-12-29T11:30:03;0.00;;;0.00;;
39362;SDS011;25088;43.238;23.110;2023-12-29T11:32:31;0.00;;;0.00;;
39362;SDS011;25088;43.238;23.110;2023-12-29T11:35:13;0.00;;;0.00;;
39362;SDS011;25088;43.238;23.110;2023-12-29T11:43:25;0.00;;;0.00;;
39362;SDS011;25088;43.238;23.110;2023-12-29T11:45:51;0.00;;;0.00;;
39362;SDS011;25088;43.238;23.110;2023-12-29T11:51:36;0.00;;;0.00;;
39362;SDS011;25088;43.238;23.110;2023-12-29T11:54:06;0.00;;;0.00;;
39362;SDS011;25088;43.238;23.110;2023-12-29T11:59:18;0.00;;;0.00;;
39362;SDS011;25088;43.238;23.110;2023-12-29T12:01:50;0.00;;;0.00;;
39362;SDS011;25088;43.238;23.110;2023-12-29T12:04:39;0.00;;;0.00;;
39362;SDS011;25088;43.238;23.110;2023-12-29T12:10:38;0.00;;;0.00;;
39362;SDS011;25088;43.238;23.110;2023-12-29T12:18:03;0.00;;;0.00;;
39362;SDS011;25088;43.238;23.110;2023-12-29T12:20:31;0.00;;;0.00;;
39362;SDS011;25088;43.238;23.110;2023-12-29T12:25:47;0.00;;;0.00;;
39362;SDS011;25088;43.238;23.110;2023-12-29T12:28:16;0.00;;;0.00;;
39362;SDS011;25088;43.238;23.110;2023-12-29T12:30:41;0.00;;;0.00;;
39362;SDS011;25088;43.238;23.110;2023-12-29T12:33:07;0.00;;;0.00;;
39362;SDS011;25088;43.238;23.110;2023-12-29T12:35:36;0.00;;;0.00;;
39362;SDS011;25088;43.238;23.110;2023-12-29T12:38:11;0.00;;;0.00;;
39362;SDS011;25088;43.238;23.110;2023-12-29T12:40:38;0.00;;;0.00;;
39362;SDS011;25088;43.238;23.110;2023-12-29T12:43:04;0.00;;;0.00;;
39362;SDS011;25088;43.238;23.110;2023-12-29T12:45:33;0.00;;;0.00;;
39362;SDS011;25088;43.238;23.110;2023-12-29T12:48:03;0.00;;;0.00;;
39362;SDS011;25088;43.238;23.110;2023-12-29T12:50:42;0.00;;;0.00;;
39362;SDS011;25088;43.238;23.110;2023-12-29T12:53:09;0.00;;;0.00;;
39362;SDS011;25088;43.238;23.110;2023-12-29T12:55:36;0.00;;;0.00;;
39362;SDS011;25088;43.238;23.110;2023-12-29T12:58:01;0.00;;;0.00;;
39362;SDS011;25088;43.238;23.110;2023-12-29T13:00:27;0.00;;;0.00;;
39362;SDS011;25088;43.238;23.110;2023-12-29T13:02:53;0.00;;;0.00;;
39362;SDS011;25088;43.238;23.110;2023-12-29T13:05:19;0.00;;;0.00;;
39362;SDS011;25088;43.238;23.110;2023-12-29T13:07:44;0.00;;;0.00;;
39362;SDS011;25088;43.238;23.110;2023-12-29T13:10:10;0.00;;;0.00;;
39362;SDS011;25088;43.238;23.110;2023-12-29T13:12:35;0.00;;;0.00;;
39362;SDS011;25088;43.238;23.110;2023-12-29T13:15:07;0.00;;;0.00;;
39362;SDS011;25088;43.238;23.110;2023-12-29T13:17:33;0.00;;;0.00;;
39362;SDS011;25088;43.238;23.110;2023-12-29T13:19:59;0.00;;;0.00;;
39362;SDS011;25088;43.238;23.110;2023-12-29T13:22:25;0.00;;;0.00;;
39362;SDS011;25088;43.238;23.110;2023-12-29T13:24:53;0.00;;;0.00;;
39362;SDS011;25088;43.238;23.110;2023-12-29T13:27:20;0.00;;;0.00;;
39362;SDS011;25088;43.238;23.110;2023-12-29T13:29:46;0.00;;;0.00;;
39362;SDS011;25088;43.238;23.110;2023-12-29T13:32:17;0.00;;;0.00;;
39362;SDS011;25088;43.238;23.110;2023-12-29T13:37:32;0.00;;;0.00;;
39362;SDS011;25088;43.238;23.110;2023-12-29T13:42:34;0.00;;;0.00;;
39362;SDS011;25088;43.238;23.110;2023-12-29T13:45:04;0.00;;;0.00;;
39362;SDS011;25088;43.238;23.110;2023-12-29T13:47:32;0.00;;;0.00;;
39362;SDS011;25088;43.238;23.110;2023-12-29T13:50:00;0.00;;;0.00;;
39362;SDS011;25088;43.238;23.110;2023-12-29T13:52:25;0.00;;;0.00;;
39362;SDS011;25088;43.238;23.110;2023-12-29T13:54:51;0.00;;;0.00;;
39362;SDS011;25088;43.238;23.110;2023-12-29T13:57:17;0.00;;;0.00;;
39362;SDS011;25088;43.238;23.110;2023-12-29T13:59:42;0.00;;;0.00;;
39362;SDS011;25088;43.238;23.110;2023-12-29T14:05:18;0.00;;;0.00;;
39362;SDS011;25088;43.238;23.110;2023-12-29T14:07:52;0.10;;;0.10;;
39362;SDS011;25088;43.238;23.110;2023-12-29T14:10:20;0.10;;;0.10;;
39362;SDS011;25088;43.238;23.110;2023-12-29T14:12:46;0.10;;;0.10;;
39362;SDS011;25088;43.238;23.110;2023-12-29T14:15:12;0.10;;;0.10;;
39362;SDS011;25088;43.238;23.110;2023-12-29T14:17:38;0.10;;;0.10;;
39362;SDS011;25088;43.238;23.110;2023-12-29T14:20:05;0.10;;;0.10;;
39362;SDS011;25088;43.238;23.110;2023-12-29T14:22:35;0.10;;;0.10;;
39362;SDS011;25088;43.238;23.110;2023-12-29T14:25:06;0.10;;;0.10;;
39362;SDS011;25088;43.238;23.110;2023-12-29T14:27:33;0.10;;;0.10;;
39362;SDS011;25088;43.238;23.110;2023-12-29T14:29:58;0.10;;;0.10;;
39362;SDS011;25088;43.238;23.110;2023-12-29T14:32:24;0.10;;;0.10;;
39362;SDS011;25088;43.238;23.110;2023-12-29T14:34:50;0.10;;;0.10;;
39362;SDS011;25088;43.238;23.110;2023-12-29T14:37:21;0.10;;;0.10;;
39362;SDS011;25088;43.238;23.110;2023-12-29T14:39:49;0.10;;;0.10;;
39362;SDS011;25088;43.238;23.110;2023-12-29T14:42:15;0.10;;;0.10;;
39362;SDS011;25088;43.238;23.110;2023-12-29T14:44:41;0.10;;;0.10;;
39362;SDS011;25088;43.238;23.110;2023-12-29T14:47:07;0.10;;;0.10;;
39362;SDS011;25088;43.238;23.110;2023-12-29T14:49:32;0.10;;;0.10;;
39362;SDS011;25088;43.238;23.110;2023-12-29T14:51:58;0.10;;;0.10;;
39362;SDS011;25088;43.238;23.110;2023-12-29T14:54:23;0.17;;;0.17;;
39362;SDS011;25088;43.238;23.110;2023-12-29T14:56:49;0.10;;;0.10;;
39362;SDS011;25088;43.238;23.110;2023-12-29T14:59:14;0.20;;;0.20;;
39362;SDS011;25088;43.238;23.110;2023-12-29T15:01:40;0.10;;;0.10;;
39362;SDS011;25088;43.238;23.110;2023-12-29T15:04:05;0.20;;;0.20;;
39362;SDS011;25088;43.238;23.110;2023-12-29T15:06:31;0.10;;;0.10;;
39362;SDS011;25088;43.238;23.110;2023-12-29T15:08:56;0.15;;;0.15;;
39362;SDS011;25088;43.238;23.110;2023-12-29T15:11:22;0.20;;;0.20;;
39362;SDS011;25088;43.238;23.110;2023-12-29T15:13:47;0.20;;;0.20;;